createdAt,value
2023-03-04T00:00:10.538Z,49.42
2023-03-04T00:02:37.888Z,49.65
2023-03-04T00:05:05.343Z,50.17
2023-03-04T00:07:32.450Z,48.85
2023-03-04T00:09:59.303Z,48.95
2023-03-04T00:12:26.179Z,49.50
2023-03-04T00:14:52.975Z,49.50
2023-03-04T00:17:21.210Z,48.75
2023-03-04T00:19:47.982Z,49.10
2023-03-04T00:22:14.869Z,48.30
2023-03-04T00:24:41.665Z,49.53
2023-03-04T00:27:08.516Z,49.17
2023-03-04T00:29:35.270Z,49.40
2023-03-04T00:32:02.371Z,49.15
2023-03-04T00:34:32.743Z,48.10
2023-03-04T00:37:01.624Z,48.78
2023-03-04T00:39:28.814Z,49.20
2023-03-04T00:41:55.924Z,48.13
2023-03-04T00:44:22.715Z,49.00
2023-03-04T00:46:49.533Z,47.75
2023-03-04T00:49:16.372Z,48.47
2023-03-04T00:51:44.627Z,48.13
2023-03-04T00:54:11.407Z,48.53
2023-03-04T00:56:38.660Z,47.55
2023-03-04T00:59:05.418Z,47.30
2023-03-04T01:01:32.405Z,48.72
2023-03-04T01:03:59.265Z,47.80
2023-03-04T01:06:26.939Z,48.28
2023-03-04T01:08:55.217Z,47.85
2023-03-04T01:11:22.122Z,48.63
2023-03-04T01:13:48.976Z,49.35
2023-03-04T01:16:16.051Z,50.28
2023-03-04T01:18:43.010Z,50.28
2023-03-04T01:21:09.772Z,50.35
2023-03-04T01:23:36.599Z,49.47
2023-03-04T01:26:05.104Z,49.60
2023-03-04T01:28:35.791Z,48.95
2023-03-04T01:31:03.167Z,48.00
2023-03-04T01:33:30.518Z,49.03
2023-03-04T01:35:58.224Z,48.53
2023-03-04T01:38:25.949Z,48.72
2023-03-04T01:40:53.494Z,49.00
2023-03-04T01:43:24.915Z,50.20
2023-03-04T01:45:53.211Z,49.08
2023-03-04T01:48:24.850Z,49.70
2023-03-04T01:53:22.168Z,48.90
2023-03-04T01:55:50.051Z,50.28
2023-03-04T01:58:17.009Z,50.25
2023-03-04T02:00:45.266Z,49.03
2023-03-04T02:03:15.364Z,50.03
2023-03-04T02:05:45.427Z,49.30
2023-03-04T02:08:14.069Z,49.80
2023-03-04T02:10:42.835Z,49.58
2023-03-04T02:13:10.893Z,49.28
2023-03-04T02:15:37.930Z,49.42
2023-03-04T02:18:14.022Z,49.05
2023-03-04T02:20:48.973Z,49.05
2023-03-04T02:23:21.093Z,49.15
2023-03-04T02:25:53.008Z,48.72
2023-03-04T02:28:22.014Z,49.00
2023-03-04T02:30:48.945Z,49.70
2023-03-04T02:33:17.819Z,49.92
2023-03-04T02:35:45.066Z,49.58
2023-03-04T02:38:12.572Z,50.75
2023-03-04T02:40:42.394Z,50.72
2023-03-04T02:43:11.513Z,50.35
2023-03-04T02:45:43.811Z,50.15
2023-03-04T02:48:12.568Z,49.67
2023-03-04T02:50:43.144Z,49.90
2023-03-04T02:53:10.300Z,49.35
2023-03-04T02:55:37.302Z,49.55
2023-03-04T02:58:04.783Z,50.10
2023-03-04T03:00:31.812Z,50.92
2023-03-04T03:03:00.331Z,49.08
2023-03-04T03:05:29.896Z,50.13
2023-03-04T03:07:56.942Z,50.10
2023-03-04T03:10:24.241Z,49.42
2023-03-04T03:12:51.440Z,49.85
2023-03-04T03:15:20.258Z,50.00
2023-03-04T03:17:47.684Z,49.17
2023-03-04T03:20:16.868Z,50.40
2023-03-04T03:22:43.988Z,49.55
2023-03-04T03:25:13.708Z,49.25
2023-03-04T03:27:40.496Z,50.50
2023-03-04T03:30:09.317Z,49.22
2023-03-04T03:32:37.005Z,48.33
2023-03-04T03:35:04.632Z,49.35
2023-03-04T03:37:33.079Z,48.55
2023-03-04T03:39:59.915Z,48.45
2023-03-04T03:42:26.713Z,50.15
2023-03-04T03:44:53.620Z,48.53
2023-03-04T03:47:20.453Z,49.03
2023-03-04T03:49:47.229Z,49.00
2023-03-04T03:52:14.118Z,48.92
2023-03-04T03:54:43.298Z,48.75
2023-03-04T03:57:10.103Z,48.03
2023-03-04T03:59:36.918Z,49.45
2023-03-04T04:02:03.840Z,49.42
2023-03-04T04:04:30.714Z,49.22
2023-03-04T04:06:57.504Z,49.47
2023-03-04T04:09:24.352Z,50.53
2023-03-04T04:11:52.543Z,50.58
2023-03-04T04:14:19.410Z,49.65
2023-03-04T04:16:46.347Z,50.08
2023-03-04T04:19:17.569Z,49.22
2023-03-04T04:21:44.847Z,49.05
2023-03-04T04:24:11.785Z,50.22
2023-03-04T04:26:38.748Z,49.40
2023-03-04T04:29:07.282Z,49.60
2023-03-04T04:31:34.327Z,50.22
2023-03-04T04:34:01.635Z,49.55
2023-03-04T04:36:28.545Z,48.95
2023-03-04T04:38:55.401Z,49.75
2023-03-04T04:41:24.119Z,50.03
2023-03-04T04:43:50.970Z,49.28
2023-03-04T04:46:19.367Z,51.05
2023-03-04T04:48:46.276Z,49.90
2023-03-04T04:51:13.662Z,49.20
2023-03-04T04:53:40.682Z,49.28
2023-03-04T04:56:12.077Z,51.28
2023-03-04T04:58:39.420Z,49.50
2023-03-04T05:01:06.606Z,49.78
2023-03-04T05:03:36.797Z,49.17
2023-03-04T05:06:05.366Z,48.17
2023-03-04T05:08:32.379Z,49.85
2023-03-04T05:10:59.269Z,49.20
2023-03-04T05:13:26.031Z,48.78
2023-03-04T05:15:54.107Z,50.80
2023-03-04T05:18:21.731Z,50.92
2023-03-04T05:20:52.254Z,51.55
2023-03-04T05:23:19.237Z,49.90
2023-03-04T05:25:46.410Z,49.83
2023-03-04T05:28:13.349Z,50.47
2023-03-04T05:30:41.271Z,50.30
2023-03-04T05:33:09.013Z,49.88
2023-03-04T05:35:36.090Z,49.95
2023-03-04T05:38:05.244Z,49.65
2023-03-04T05:40:32.476Z,49.75
2023-03-04T05:42:59.434Z,50.33
2023-03-04T05:45:27.249Z,51.40
2023-03-04T05:47:54.835Z,49.45
2023-03-04T05:50:22.970Z,49.20
2023-03-04T05:52:52.477Z,50.65
2023-03-04T05:55:20.889Z,50.20
2023-03-04T05:57:48.084Z,49.10
2023-03-04T06:00:15.988Z,49.40
2023-03-04T06:02:43.848Z,50.45
2023-03-04T06:05:12.496Z,50.00
2023-03-04T06:07:39.338Z,49.22
2023-03-04T06:10:07.421Z,49.53
2023-03-04T06:12:35.710Z,49.60
2023-03-04T06:15:03.058Z,48.53
2023-03-04T06:17:30.172Z,49.42
2023-03-04T06:19:56.983Z,50.42
2023-03-04T06:22:23.869Z,50.58
2023-03-04T06:24:50.656Z,49.83
2023-03-04T06:27:17.534Z,49.63
2023-03-04T06:29:45.698Z,51.30
2023-03-04T06:32:12.552Z,50.30
2023-03-04T06:34:39.368Z,49.10
2023-03-04T06:37:06.273Z,50.42
2023-03-04T06:39:33.037Z,49.60
2023-03-04T06:41:59.917Z,50.65
2023-03-04T06:44:26.760Z,50.58
2023-03-04T06:46:55.081Z,50.78
2023-03-04T06:49:22.012Z,50.75
2023-03-04T06:51:48.810Z,50.22
2023-03-04T06:54:15.617Z,50.33
2023-03-04T06:56:42.534Z,49.60
2023-03-04T06:59:10.588Z,49.33
2023-03-04T07:01:38.154Z,50.17
2023-03-04T07:04:06.555Z,49.80
2023-03-04T07:06:33.590Z,49.65
2023-03-04T07:09:00.510Z,48.97
2023-03-04T07:11:27.407Z,49.58
2023-03-04T07:13:54.299Z,49.78
2023-03-04T07:16:23.460Z,49.78
2023-03-04T07:18:50.949Z,49.50
2023-03-04T07:21:19.506Z,49.28
2023-03-04T07:23:46.703Z,50.35
2023-03-04T07:26:13.733Z,50.70
2023-03-04T07:28:40.671Z,50.90
2023-03-04T07:31:12.421Z,50.22
2023-03-04T07:33:39.440Z,51.35
2023-03-04T07:36:06.795Z,49.28
2023-03-04T07:38:35.174Z,49.38
2023-03-04T07:41:02.219Z,48.90
2023-03-04T07:43:29.418Z,48.85
2023-03-04T07:46:00.757Z,48.63
2023-03-04T07:48:27.815Z,49.08
2023-03-04T07:51:06.560Z,50.28
2023-03-04T07:53:35.968Z,49.50
2023-03-04T07:56:03.039Z,49.92
2023-03-04T07:58:29.984Z,51.92
2023-03-04T08:00:56.858Z,50.97
2023-03-04T08:03:24.303Z,50.47
2023-03-04T08:05:53.699Z,50.38
2023-03-04T08:08:20.656Z,50.55
2023-03-04T08:10:48.853Z,50.85
2023-03-04T08:13:15.626Z,50.30
2023-03-04T08:15:43.494Z,48.63
2023-03-04T08:18:10.505Z,49.88
2023-03-04T08:20:37.300Z,50.25
2023-03-04T08:23:04.302Z,49.78
2023-03-04T08:25:31.241Z,49.90
2023-03-04T08:27:59.751Z,51.85
2023-03-04T08:30:26.640Z,50.15
2023-03-04T08:32:53.613Z,50.03
2023-03-04T08:35:20.609Z,49.42
2023-03-04T08:37:47.434Z,49.75
2023-03-04T08:40:14.899Z,50.60
2023-03-04T08:42:42.342Z,50.95
2023-03-04T08:45:11.644Z,50.95
2023-03-04T08:47:39.045Z,50.05
2023-03-04T08:50:07.449Z,50.22
2023-03-04T08:52:34.353Z,51.00
2023-03-04T08:55:01.206Z,50.08
2023-03-04T08:57:28.115Z,49.88
2023-03-04T08:59:55.079Z,49.42
2023-03-04T09:02:23.355Z,49.78
2023-03-04T09:04:50.157Z,50.25
2023-03-04T09:07:17.128Z,49.72
2023-03-04T09:09:43.982Z,50.97
2023-03-04T09:12:10.807Z,50.10
2023-03-04T09:14:37.670Z,48.88
2023-03-04T09:17:05.706Z,49.63
2023-03-04T09:19:33.986Z,50.85
2023-03-04T09:22:00.881Z,49.85
2023-03-04T09:24:27.793Z,50.30
2023-03-04T09:26:55.154Z,48.53
2023-03-04T09:29:22.306Z,51.60
2023-03-04T09:31:49.185Z,50.55
2023-03-04T09:34:16.508Z,50.40
2023-03-04T09:36:44.789Z,49.90
2023-03-04T09:39:11.792Z,49.28
2023-03-04T09:41:42.200Z,49.00
2023-03-04T09:44:17.152Z,49.55
2023-03-04T09:46:47.088Z,50.15
2023-03-04T09:49:15.144Z,50.72
2023-03-04T09:51:52.889Z,49.25
2023-03-04T09:54:32.359Z,49.13
2023-03-04T09:57:16.036Z,49.38
2023-03-04T09:59:51.471Z,50.10
2023-03-04T10:02:29.136Z,48.78
2023-03-04T10:05:00.946Z,49.47
2023-03-04T10:07:34.540Z,49.35
2023-03-04T10:10:11.102Z,50.63
2023-03-04T10:12:41.972Z,50.20
2023-03-04T10:15:23.053Z,49.80
2023-03-04T10:17:54.306Z,51.28
2023-03-04T10:20:23.708Z,49.70
2023-03-04T10:22:53.421Z,50.08
2023-03-04T10:25:22.214Z,50.83
2023-03-04T10:27:52.334Z,50.30
2023-03-04T10:30:29.309Z,48.95
2023-03-04T10:32:56.163Z,48.83
2023-03-04T10:35:31.353Z,48.75
2023-03-04T10:38:03.251Z,49.95
2023-03-04T10:40:36.864Z,49.45
2023-03-04T10:43:08.062Z,51.15
2023-03-04T10:45:40.279Z,51.40
2023-03-04T10:48:17.558Z,49.15
2023-03-04T10:50:44.519Z,50.42
2023-03-04T10:53:26.394Z,49.78
2023-03-04T10:58:21.088Z,49.33
2023-03-04T11:01:00.273Z,49.78
2023-03-04T11:03:32.091Z,48.80
2023-03-04T11:06:15.531Z,49.53
2023-03-04T11:08:43.809Z,51.47
2023-03-04T11:11:23.568Z,51.38
2023-03-04T11:13:52.642Z,50.03
2023-03-04T11:16:26.278Z,49.97
2023-03-04T11:18:55.454Z,50.58
2023-03-04T11:21:25.656Z,49.35
2023-03-04T11:23:57.747Z,50.05
2023-03-04T11:26:30.946Z,50.78
2023-03-04T11:29:02.195Z,49.72
2023-03-04T11:31:33.828Z,51.25
2023-03-04T11:36:35.694Z,50.20
2023-03-04T11:39:13.492Z,48.38
2023-03-04T11:41:45.403Z,49.13
2023-03-04T11:44:14.259Z,49.38
2023-03-04T11:47:16.735Z,48.83
2023-03-04T11:50:16.509Z,48.83
2023-03-04T11:53:20.721Z,49.70
2023-03-04T11:55:56.425Z,52.40
2023-03-04T11:59:01.758Z,51.53
2023-03-04T12:01:35.954Z,50.53
2023-03-04T12:04:13.095Z,52.53
2023-03-04T12:06:51.089Z,53.85
2023-03-04T12:09:30.146Z,54.03
2023-03-04T12:12:09.735Z,53.10
2023-03-04T12:14:43.750Z,53.35
2023-03-04T12:17:30.751Z,51.90
2023-03-04T12:20:16.971Z,53.00
2023-03-04T12:22:45.765Z,52.30
2023-03-04T12:25:42.170Z,54.83
2023-03-04T12:28:41.209Z,51.53
2023-03-04T12:31:22.462Z,51.90
2023-03-04T12:34:04.310Z,51.33
2023-03-04T12:39:22.709Z,51.63
2023-03-04T12:42:01.103Z,51.42
2023-03-04T12:44:33.957Z,51.50
2023-03-04T12:47:21.743Z,51.90
2023-03-04T12:50:00.412Z,50.10
2023-03-04T12:52:38.831Z,50.70
2023-03-04T12:55:11.156Z,49.67
2023-03-04T12:57:38.785Z,50.45
2023-03-04T13:00:19.832Z,48.88
2023-03-04T13:03:00.275Z,48.17
2023-03-04T13:06:02.184Z,48.43
2023-03-04T13:08:34.609Z,49.97
2023-03-04T13:11:03.592Z,49.40
2023-03-04T13:13:39.487Z,50.15
2023-03-04T13:16:31.109Z,49.00
2023-03-04T13:18:58.373Z,49.50
2023-03-04T13:21:26.819Z,49.28
2023-03-04T13:23:54.220Z,48.28
2023-03-04T13:26:29.237Z,48.28
2023-03-04T13:29:30.876Z,48.47
2023-03-04T13:32:01.473Z,48.05
2023-03-04T13:34:49.118Z,47.13
2023-03-04T13:37:32.182Z,48.95
2023-03-04T13:40:38.145Z,48.85
2023-03-04T13:43:28.820Z,49.80
2023-03-04T13:45:55.948Z,47.80
2023-03-04T13:48:36.435Z,50.25
2023-03-04T13:51:03.753Z,48.58
2023-03-04T13:53:39.224Z,48.95
2023-03-04T13:56:36.579Z,48.47
2023-03-04T13:59:32.434Z,47.95
2023-03-04T14:02:10.367Z,47.05
2023-03-04T14:04:39.832Z,47.95
2023-03-04T14:07:20.255Z,48.35
2023-03-04T14:10:05.112Z,48.22
2023-03-04T14:12:34.654Z,47.40
2023-03-04T14:15:06.151Z,48.13
2023-03-04T14:17:37.044Z,48.88
2023-03-04T14:20:21.165Z,49.38
2023-03-04T14:22:48.011Z,47.67
2023-03-04T14:25:22.658Z,48.67
2023-03-04T14:27:49.644Z,49.00
2023-03-04T14:30:28.946Z,48.03
2023-03-04T14:33:00.526Z,47.30
2023-03-04T14:35:30.960Z,46.97
2023-03-04T14:38:01.589Z,46.88
2023-03-04T14:40:31.902Z,47.17
2023-03-04T14:43:03.984Z,46.05
2023-03-04T14:45:31.195Z,46.22
2023-03-04T14:48:02.016Z,46.25
2023-03-04T14:50:30.557Z,45.40
2023-03-04T14:53:15.777Z,45.67
2023-03-04T14:55:55.978Z,45.70
2023-03-04T14:58:25.148Z,45.15
2023-03-04T15:01:08.559Z,46.78
2023-03-04T15:03:36.139Z,45.33
2023-03-04T15:06:17.718Z,45.13
2023-03-04T15:08:45.844Z,45.80
2023-03-04T15:11:22.540Z,47.15
2023-03-04T15:13:51.504Z,46.78
2023-03-04T15:16:23.367Z,47.70
2023-03-04T15:19:02.368Z,46.47
2023-03-04T15:21:34.927Z,46.20
2023-03-04T15:24:03.679Z,46.58
2023-03-04T15:26:32.021Z,46.72
2023-03-04T15:28:59.152Z,47.53
2023-03-04T15:31:26.049Z,46.83
2023-03-04T15:33:53.237Z,46.72
2023-03-04T15:36:22.458Z,44.97
2023-03-04T15:38:52.684Z,45.10
2023-03-04T15:41:23.010Z,45.60
2023-03-04T15:43:50.118Z,45.63
2023-03-04T15:46:18.106Z,45.70
2023-03-04T15:48:45.747Z,46.00
2023-03-04T15:51:15.205Z,45.53
2023-03-04T15:53:45.926Z,45.78
2023-03-04T15:56:17.282Z,46.33
2023-03-04T15:58:46.875Z,46.38
2023-03-04T16:01:17.217Z,46.28
2023-03-04T16:03:44.175Z,45.63
2023-03-04T16:06:13.220Z,44.65
2023-03-04T16:08:41.935Z,45.70
2023-03-04T16:11:14.028Z,45.85
2023-03-04T16:13:42.221Z,44.88
2023-03-04T16:16:10.817Z,45.65
2023-03-04T16:18:38.058Z,44.90
2023-03-04T16:21:06.309Z,45.40
2023-03-04T16:23:38.359Z,45.17
2023-03-04T16:26:20.504Z,45.50
2023-03-04T16:28:49.046Z,45.92
2023-03-04T16:31:16.537Z,47.22
2023-03-04T16:33:43.536Z,45.42
2023-03-04T16:36:15.252Z,46.58
2023-03-04T16:38:43.139Z,49.97
2023-03-04T16:41:13.132Z,46.55
2023-03-04T16:43:40.296Z,46.15
2023-03-04T16:46:10.609Z,46.00
2023-03-04T16:48:37.588Z,46.05
2023-03-04T16:51:12.288Z,46.38
2023-03-04T16:53:41.778Z,46.53
2023-03-04T16:56:12.684Z,46.42
2023-03-04T16:58:40.036Z,47.25
2023-03-04T17:01:14.421Z,48.00
2023-03-04T17:03:41.409Z,47.33
2023-03-04T17:06:10.085Z,47.97
2023-03-04T17:08:36.907Z,48.40
2023-03-04T17:11:03.747Z,47.42
2023-03-04T17:13:30.525Z,47.60
2023-03-04T17:16:00.785Z,48.13
2023-03-04T17:18:29.407Z,48.65
2023-03-04T17:21:02.442Z,48.78
2023-03-04T17:23:29.651Z,49.28
2023-03-04T17:25:57.197Z,49.50
2023-03-04T17:28:24.140Z,49.33
2023-03-04T17:30:50.997Z,50.30
2023-03-04T17:33:17.942Z,50.20
2023-03-04T17:35:46.227Z,48.95
2023-03-04T17:38:13.616Z,49.58
2023-03-04T17:40:40.665Z,50.67
2023-03-04T17:43:11.472Z,50.10
2023-03-04T17:45:38.554Z,51.00
2023-03-04T17:48:06.170Z,50.90
2023-03-04T17:50:33.210Z,50.33
2023-03-04T17:53:01.464Z,50.08
2023-03-04T17:55:28.310Z,50.25
2023-03-04T17:57:57.402Z,50.38
2023-03-04T18:00:24.459Z,50.03
2023-03-04T18:02:51.215Z,49.95
2023-03-04T18:05:18.372Z,49.28
2023-03-04T18:07:45.240Z,50.42
2023-03-04T18:10:13.522Z,50.70
2023-03-04T18:12:40.363Z,50.03
2023-03-04T18:15:07.825Z,50.75
2023-03-04T18:17:34.613Z,50.80
2023-03-04T18:20:02.042Z,51.03
2023-03-04T18:22:30.282Z,50.80
2023-03-04T18:24:57.026Z,50.85
2023-03-04T18:27:25.256Z,51.90
2023-03-04T18:29:52.043Z,51.80
2023-03-04T18:32:18.983Z,51.20
2023-03-04T18:34:45.920Z,51.05
2023-03-04T18:37:12.749Z,50.22
2023-03-04T18:39:39.702Z,51.22
2023-03-04T18:42:06.692Z,50.05
2023-03-04T18:44:34.852Z,50.10
2023-03-04T18:47:02.084Z,51.53
2023-03-04T18:49:29.386Z,49.90
2023-03-04T18:51:56.226Z,50.40
2023-03-04T18:54:23.041Z,50.08
2023-03-04T18:56:53.143Z,50.88
2023-03-04T18:59:24.210Z,50.35
2023-03-04T19:01:53.508Z,50.88
2023-03-04T19:04:23.196Z,50.47
2023-03-04T19:06:50.211Z,50.67
2023-03-04T19:09:16.996Z,51.38
2023-03-04T19:11:43.968Z,51.38
2023-03-04T19:14:11.925Z,52.08
2023-03-04T19:16:39.823Z,51.30
2023-03-04T19:19:08.099Z,50.72
2023-03-04T19:21:38.313Z,51.53
2023-03-04T19:24:06.256Z,51.20
2023-03-04T19:26:33.158Z,51.17
2023-03-04T19:29:00.008Z,50.95
2023-03-04T19:31:27.200Z,51.00
2023-03-04T19:33:54.050Z,51.08
2023-03-04T19:36:22.320Z,50.80
2023-03-04T19:38:49.297Z,51.03
2023-03-04T19:41:17.363Z,50.63
2023-03-04T19:43:46.012Z,50.63
2023-03-04T19:46:13.503Z,50.78
2023-03-04T19:48:40.678Z,50.15
2023-03-04T19:51:14.774Z,50.13
2023-03-04T19:53:43.146Z,49.92
2023-03-04T19:56:10.444Z,50.22
2023-03-04T19:58:37.807Z,50.20
2023-03-04T20:01:04.965Z,49.40
2023-03-04T20:03:32.174Z,50.38
2023-03-04T20:06:03.916Z,50.13
2023-03-04T20:08:30.757Z,49.95
2023-03-04T20:10:58.974Z,50.28
2023-03-04T20:13:25.960Z,49.92
2023-03-04T20:15:52.853Z,50.47
2023-03-04T20:18:19.706Z,50.20
2023-03-04T20:20:46.546Z,50.13
2023-03-04T20:23:13.342Z,50.50
2023-03-04T20:25:40.516Z,50.67
2023-03-04T20:28:08.998Z,50.58
2023-03-04T20:30:35.790Z,51.20
2023-03-04T20:33:02.589Z,50.45
2023-03-04T20:35:29.413Z,51.08
2023-03-04T20:37:56.465Z,50.65
2023-03-04T20:40:23.350Z,49.78
2023-03-04T20:42:50.208Z,50.70
2023-03-04T20:45:20.253Z,50.00
2023-03-04T20:47:47.114Z,51.28
2023-03-04T20:50:14.578Z,51.22
2023-03-04T20:52:41.458Z,51.35
2023-03-04T20:55:09.079Z,51.75
2023-03-04T20:57:35.957Z,52.00
2023-03-04T21:00:03.128Z,51.70
2023-03-04T21:02:31.480Z,51.90
2023-03-04T21:04:58.256Z,51.25
2023-03-04T21:07:26.350Z,51.35
2023-03-04T21:09:53.306Z,51.45
2023-03-04T21:12:20.164Z,51.55
2023-03-04T21:14:47.059Z,51.33
2023-03-04T21:17:13.935Z,51.15
2023-03-04T21:19:43.496Z,53.00
2023-03-04T21:22:15.041Z,51.65
2023-03-04T21:24:44.605Z,51.60
2023-03-04T21:27:13.092Z,52.42
2023-03-04T21:29:39.940Z,51.95
2023-03-04T21:32:23.416Z,51.45
2023-03-04T21:34:54.458Z,52.40
2023-03-04T21:37:22.249Z,51.80
2023-03-04T21:39:49.140Z,52.60
2023-03-04T21:42:16.083Z,51.25
2023-03-04T21:44:49.513Z,51.25
2023-03-04T21:47:16.894Z,51.70
2023-03-04T21:49:43.765Z,50.75
2023-03-04T21:52:13.097Z,50.80
2023-03-04T21:54:39.956Z,50.80
2023-03-04T21:57:06.815Z,51.08
2023-03-04T21:59:33.646Z,50.90
2023-03-04T22:02:01.687Z,50.40
2023-03-04T22:04:28.514Z,51.30
2023-03-04T22:06:55.372Z,51.50
2023-03-04T22:09:23.561Z,51.10
2023-03-04T22:11:50.598Z,51.33
2023-03-04T22:14:17.379Z,52.00
2023-03-04T22:16:59.538Z,52.30
2023-03-04T22:19:29.938Z,50.67
2023-03-04T22:21:57.100Z,51.53
2023-03-04T22:24:26.225Z,51.83
2023-03-04T22:26:53.556Z,50.45
2023-03-04T22:29:20.465Z,51.72
2023-03-04T22:31:47.863Z,51.38
2023-03-04T22:34:15.841Z,51.67
2023-03-04T22:36:44.131Z,52.25
2023-03-04T22:39:13.290Z,51.78
2023-03-04T22:41:41.914Z,52.28
2023-03-04T22:44:08.930Z,50.70
2023-03-04T22:46:38.308Z,50.92
2023-03-04T22:49:09.560Z,51.63
2023-03-04T22:51:37.183Z,51.60
2023-03-04T22:54:04.268Z,50.78
2023-03-04T22:56:31.242Z,51.70
2023-03-04T22:58:59.446Z,52.50
2023-03-04T23:01:26.288Z,53.20
2023-03-04T23:03:53.192Z,53.25
2023-03-04T23:06:26.166Z,53.55
2023-03-04T23:08:53.376Z,51.88
2023-03-04T23:11:21.971Z,52.17
2023-03-04T23:13:49.982Z,52.60
2023-03-04T23:16:19.134Z,52.53
2023-03-04T23:18:48.054Z,52.70
2023-03-04T23:21:18.006Z,51.92
2023-03-04T23:23:45.804Z,53.70
2023-03-04T23:26:17.193Z,52.00
2023-03-04T23:28:44.275Z,52.70
2023-03-04T23:31:14.808Z,52.83
2023-03-04T23:33:44.077Z,53.42
2023-03-04T23:36:15.307Z,52.15
2023-03-04T23:41:11.734Z,53.15
2023-03-04T23:43:38.573Z,53.55
2023-03-04T23:46:05.392Z,52.60
2023-03-04T23:48:32.233Z,52.17
2023-03-04T23:51:01.675Z,51.95
2023-03-04T23:53:28.603Z,52.58
2023-03-04T23:55:55.640Z,53.03
2023-03-04T23:58:22.564Z,52.83
